This is the latest recevied weather packets stored in our database for station/object EA2BK-11. If no packets are shown the sender has not sent any weather packets the latest 10 day(s).
| Time | Temp. | Humidity | Pressure | Rain* | Wind** | Luminosity | Snow |
|---|---|---|---|---|---|---|---|
| 1777123593 | 32.78° C | 25% | 948 hPa | - | - | - | - |
| 1777122688 | 32.78° C | 25% | 948 hPa | - | - | - | - |
| 1777121783 | 30° C | 29% | 948 hPa | - | - | - | - |
| 1777120877 | 26.67° C | 35% | 949 hPa | - | - | - | - |
| 1777119972 | 25.56° C | 36% | 949 hPa | - | - | - | - |
| 1777119067 | 25.56° C | 37% | 949 hPa | - | - | - | - |
| 1777118162 | 24.44° C | 39% | 949 hPa | - | - | - | - |
| 1777117257 | 23.89° C | 41% | 949 hPa | - | - | - | - |
| 1777116352 | 22.78° C | 42% | 949 hPa | - | - | - | - |
| 1777115446 | 22.78° C | 43% | 950 hPa | - | - | - | - |
| 1777114541 | 22.78° C | 43% | 950 hPa | - | - | - | - |
| 1777113636 | 22.78° C | 43% | 950 hPa | - | - | - | - |
| 1777112731 | 22.78° C | 44% | 950 hPa | - | - | - | - |
| 1777111826 | 22.78° C | 45% | 950 hPa | - | - | - | - |
| 1777110920 | 21.67° C | 46% | 950 hPa | - | - | - | - |
| 1777110015 | 21.67° C | 47% | 950 hPa | - | - | - | - |
| 1777109110 | 20.56° C | 50% | 950 hPa | - | - | - | - |
| 1777108205 | 20° C | 52% | 950 hPa | - | - | - | - |
| 1777107300 | 20.56° C | 52% | 950 hPa | - | - | - | - |
| 1777106395 | 20.56° C | 52% | 950 hPa | - | - | - | - |
| 1777105489 | 20° C | 54% | 950 hPa | - | - | - | - |
| 1777104582 | 20° C | 54% | 950 hPa | - | - | - | - |
| 1777103677 | 19.44° C | 56% | 950 hPa | - | - | - | - |
| 1777102771 | 18.89° C | 57% | 950 hPa | - | - | - | - |
| 1777101866 | 18.33° C | 58% | 950 hPa | - | - | - | - |
* Rain since midnight (hover to see other rain measurements)
** Current wind speed in m/s (hover to see current wind gust speed)